createdAt,value
2022-10-28T00:01:06.500Z,13.23
2022-10-28T00:03:33.583Z,13.20
2022-10-28T00:06:08.133Z,13.14
2022-10-28T00:08:35.443Z,13.18
2022-10-28T00:11:06.747Z,13.18
2022-10-28T00:13:34.098Z,13.14
2022-10-28T00:16:04.322Z,13.08
2022-10-28T00:18:31.276Z,13.06
2022-10-28T00:21:02.120Z,13.05
2022-10-28T00:23:28.904Z,13.05
2022-10-28T00:25:55.803Z,13.06
2022-10-28T00:28:22.526Z,13.01
2022-10-28T00:30:49.380Z,12.98
2022-10-28T00:33:16.235Z,12.96
2022-10-28T00:35:42.902Z,12.94
2022-10-28T00:38:09.610Z,12.92
2022-10-28T00:40:36.673Z,12.89
2022-10-28T00:43:03.440Z,12.90
2022-10-28T00:45:30.551Z,12.86
2022-10-28T00:47:58.589Z,12.82
2022-10-28T00:50:44.044Z,12.81
2022-10-28T00:53:19.252Z,12.80
2022-10-28T00:55:47.495Z,12.74
2022-10-28T00:58:15.027Z,12.74
2022-10-28T01:00:41.861Z,12.72
2022-10-28T01:03:09.753Z,12.72
2022-10-28T01:05:38.831Z,12.64
2022-10-28T01:08:05.912Z,12.64
2022-10-28T01:10:43.974Z,12.61
2022-10-28T01:13:29.510Z,12.51
2022-10-28T01:16:02.849Z,12.54
2022-10-28T01:18:32.388Z,12.52
2022-10-28T01:21:01.857Z,12.52
2022-10-28T01:23:28.542Z,12.53
2022-10-28T01:26:01.466Z,12.52
2022-10-28T01:28:43.339Z,12.48
2022-10-28T01:31:21.679Z,12.45
2022-10-28T01:34:03.940Z,12.40
2022-10-28T01:36:49.745Z,12.36
2022-10-28T01:39:42.997Z,12.37
2022-10-28T01:42:13.055Z,12.33
2022-10-28T01:44:54.091Z,12.30
2022-10-28T01:47:47.556Z,12.25
2022-10-28T01:50:44.066Z,12.28
2022-10-28T01:53:14.048Z,12.24
2022-10-28T01:55:42.795Z,12.19
2022-10-28T01:58:12.258Z,12.19
2022-10-28T02:00:39.963Z,12.16
2022-10-28T02:03:08.572Z,12.19
2022-10-28T02:05:41.520Z,12.17
2022-10-28T02:08:11.444Z,12.09
2022-10-28T02:10:41.055Z,12.06
2022-10-28T02:13:11.867Z,12.04
2022-10-28T02:15:43.637Z,12.04
2022-10-28T02:18:23.798Z,11.99
2022-10-28T02:21:01.111Z,12.00
2022-10-28T02:23:33.799Z,11.98
2022-10-28T02:26:03.303Z,11.93
2022-10-28T02:28:53.155Z,11.91
2022-10-28T02:31:25.651Z,11.91
2022-10-28T02:33:55.859Z,11.89
2022-10-28T02:36:23.691Z,11.88
2022-10-28T02:38:53.010Z,11.87
2022-10-28T02:41:21.746Z,11.84
2022-10-28T02:43:51.956Z,11.83
2022-10-28T02:46:19.428Z,11.81
2022-10-28T02:48:53.154Z,11.82
2022-10-28T02:51:21.691Z,11.79
2022-10-28T02:54:07.197Z,11.75
2022-10-28T02:56:39.876Z,11.72
2022-10-28T02:59:13.113Z,11.71
2022-10-28T03:01:40.497Z,11.70
2022-10-28T03:04:07.322Z,11.68
2022-10-28T03:06:34.076Z,11.63
2022-10-28T03:09:00.811Z,11.60
2022-10-28T03:11:27.554Z,11.54
2022-10-28T03:13:54.277Z,11.56
2022-10-28T03:16:21.042Z,11.53
2022-10-28T03:18:47.903Z,11.47
2022-10-28T03:21:14.831Z,11.45
2022-10-28T03:23:41.639Z,11.45
2022-10-28T03:26:08.387Z,11.43
2022-10-28T03:28:35.296Z,11.38
2022-10-28T03:31:02.119Z,11.39
2022-10-28T03:33:29.022Z,11.38
2022-10-28T03:35:55.872Z,11.33
2022-10-28T03:38:22.719Z,11.31
2022-10-28T03:40:50.219Z,11.30
2022-10-28T03:43:17.479Z,11.29
2022-10-28T03:45:44.616Z,11.30
2022-10-28T03:48:11.435Z,11.28
2022-10-28T03:50:38.092Z,11.23
2022-10-28T03:53:04.910Z,11.16
2022-10-28T03:55:31.633Z,11.14
2022-10-28T03:58:00.571Z,11.14
2022-10-28T04:00:27.545Z,11.10
2022-10-28T04:02:54.561Z,11.08
2022-10-28T04:05:21.826Z,11.02
2022-10-28T04:07:48.650Z,11.05
2022-10-28T04:10:15.755Z,11.04
2022-10-28T04:12:42.445Z,11.03
2022-10-28T04:15:09.371Z,11.02
2022-10-28T04:17:36.107Z,11.00
2022-10-28T04:20:03.131Z,10.97
2022-10-28T04:22:29.940Z,10.97
2022-10-28T04:24:56.776Z,10.95
2022-10-28T04:27:23.460Z,10.92
2022-10-28T04:29:50.503Z,10.90
2022-10-28T04:32:17.190Z,10.92
2022-10-28T04:34:43.921Z,10.95
2022-10-28T04:37:10.831Z,10.90
2022-10-28T04:39:37.552Z,10.89
2022-10-28T04:42:04.482Z,10.86
2022-10-28T04:44:31.220Z,10.84
2022-10-28T04:46:58.217Z,10.81
2022-10-28T04:49:24.935Z,10.79
2022-10-28T04:51:51.721Z,10.77
2022-10-28T04:54:18.429Z,10.76
2022-10-28T04:56:45.399Z,10.74
2022-10-28T04:59:12.182Z,10.75
2022-10-28T05:01:39.001Z,10.76
2022-10-28T05:04:05.806Z,10.73
2022-10-28T05:06:32.654Z,10.74
2022-10-28T05:08:59.329Z,10.69
2022-10-28T05:11:26.178Z,10.67
2022-10-28T05:13:55.914Z,10.65
2022-10-28T05:16:23.195Z,10.68
2022-10-28T05:18:49.898Z,10.66
2022-10-28T05:21:16.959Z,10.66
2022-10-28T05:23:43.867Z,10.66
2022-10-28T05:26:10.626Z,10.68
2022-10-28T05:28:37.461Z,10.68
2022-10-28T05:31:04.185Z,10.67
2022-10-28T05:33:31.158Z,10.66
2022-10-28T05:35:58.710Z,10.69
2022-10-28T05:38:27.650Z,10.68
2022-10-28T05:40:54.331Z,10.67
2022-10-28T05:43:21.203Z,10.67
2022-10-28T05:45:54.703Z,10.68
2022-10-28T05:48:21.884Z,10.69
2022-10-28T05:50:49.060Z,10.69
2022-10-28T05:53:16.261Z,10.73
2022-10-28T05:55:46.777Z,10.72
2022-10-28T05:58:16.567Z,10.71
2022-10-28T06:00:43.313Z,10.73
2022-10-28T06:03:11.063Z,10.73
2022-10-28T06:05:39.401Z,10.76
2022-10-28T06:08:06.651Z,10.80
2022-10-28T06:10:34.075Z,10.78
2022-10-28T06:12:59.241Z,10.84
2022-10-28T06:15:25.967Z,10.86
2022-10-28T06:17:52.844Z,10.87
2022-10-28T06:20:19.560Z,10.87
2022-10-28T06:22:47.371Z,10.92
2022-10-28T06:25:14.523Z,10.93
2022-10-28T06:27:41.471Z,10.94
2022-10-28T06:30:08.448Z,10.96
2022-10-28T06:32:35.394Z,11.01
2022-10-28T06:35:02.233Z,11.01
2022-10-28T06:37:28.950Z,11.01
2022-10-28T06:39:57.358Z,11.00
2022-10-28T06:42:24.230Z,11.03
2022-10-28T06:44:51.176Z,11.07
2022-10-28T06:47:19.538Z,11.09
2022-10-28T06:49:46.362Z,11.12
2022-10-28T06:52:13.312Z,11.18
2022-10-28T06:54:40.115Z,11.23
2022-10-28T06:57:06.977Z,11.26
2022-10-28T06:59:33.697Z,11.26
2022-10-28T07:02:00.924Z,11.25
2022-10-28T07:04:27.734Z,11.24
2022-10-28T07:06:55.564Z,11.25
2022-10-28T07:09:22.446Z,11.27
2022-10-28T07:11:53.569Z,11.28
2022-10-28T07:14:21.975Z,11.32
2022-10-28T07:16:48.677Z,11.33
2022-10-28T07:19:19.033Z,11.38
2022-10-28T07:21:48.623Z,11.39
2022-10-28T07:24:15.618Z,11.46
2022-10-28T07:26:42.402Z,11.58
2022-10-28T07:29:10.279Z,11.60
2022-10-28T07:31:37.136Z,11.62
2022-10-28T07:34:03.982Z,11.66
2022-10-28T07:36:30.799Z,11.73
2022-10-28T07:38:57.548Z,11.82
2022-10-28T07:41:24.413Z,11.85
2022-10-28T07:43:51.219Z,11.93
2022-10-28T07:46:18.869Z,12.01
2022-10-28T07:48:46.066Z,12.05
2022-10-28T07:51:14.879Z,12.12
2022-10-28T07:53:41.624Z,12.17
2022-10-28T07:56:10.247Z,12.22
2022-10-28T07:58:47.219Z,12.26
2022-10-28T08:01:15.863Z,12.28
2022-10-28T08:03:42.640Z,12.31
2022-10-28T08:06:10.947Z,12.36
2022-10-28T08:08:37.894Z,12.44
2022-10-28T08:11:11.817Z,12.45
2022-10-28T08:13:40.176Z,12.50
2022-10-28T08:16:08.300Z,12.55
2022-10-28T08:18:35.680Z,12.63
2022-10-28T08:21:03.177Z,12.73
2022-10-28T08:23:30.139Z,12.75
2022-10-28T08:25:56.990Z,12.82
2022-10-28T08:28:24.193Z,12.85
2022-10-28T08:31:04.140Z,12.90
2022-10-28T08:33:38.508Z,12.61
2022-10-28T08:36:06.008Z,12.98
2022-10-28T08:38:32.720Z,12.98
2022-10-28T08:41:05.451Z,13.03
2022-10-28T08:43:52.835Z,13.08
2022-10-28T08:46:26.912Z,13.17
2022-10-28T08:48:54.081Z,13.22
2022-10-28T08:51:41.499Z,13.30
2022-10-28T08:54:20.741Z,13.39
2022-10-28T08:56:48.932Z,13.50
2022-10-28T08:59:29.579Z,13.56
2022-10-28T09:02:01.069Z,13.64
2022-10-28T09:04:30.878Z,13.70
2022-10-28T09:06:57.706Z,13.75
2022-10-28T09:09:24.629Z,13.82
2022-10-28T09:11:51.313Z,13.87
2022-10-28T09:14:36.457Z,13.94
2022-10-28T09:17:10.111Z,14.02
2022-10-28T09:19:49.283Z,14.08
2022-10-28T09:22:22.525Z,14.13
2022-10-28T09:25:01.666Z,14.22
2022-10-28T09:27:47.096Z,14.27
2022-10-28T09:30:32.705Z,14.33
2022-10-28T09:33:05.541Z,14.44
2022-10-28T09:35:37.618Z,14.54
2022-10-28T09:38:22.732Z,14.59
2022-10-28T09:40:52.842Z,14.65
2022-10-28T09:43:26.092Z,14.72
2022-10-28T09:45:55.664Z,14.79
2022-10-28T09:48:24.703Z,14.85
2022-10-28T09:50:52.984Z,14.89
2022-10-28T09:53:35.953Z,15.01
2022-10-28T09:56:03.943Z,15.11
2022-10-28T09:58:32.135Z,15.18
2022-10-28T10:00:59.030Z,15.25
2022-10-28T10:03:25.806Z,15.36
2022-10-28T10:05:54.466Z,15.43
2022-10-28T10:08:22.688Z,15.54
2022-10-28T10:10:49.593Z,15.61
2022-10-28T10:13:18.665Z,15.68
2022-10-28T10:15:48.897Z,15.71
2022-10-28T10:18:18.665Z,15.77
2022-10-28T10:20:51.733Z,15.85
2022-10-28T10:23:23.414Z,15.89
2022-10-28T10:26:09.684Z,15.97
2022-10-28T10:28:43.449Z,16.03
2022-10-28T10:31:17.954Z,16.08
2022-10-28T10:33:48.969Z,16.18
2022-10-28T10:36:17.418Z,16.23
2022-10-28T10:38:57.959Z,16.33
2022-10-28T10:41:34.439Z,16.35
2022-10-28T10:44:01.424Z,16.39
2022-10-28T10:46:28.225Z,16.43
2022-10-28T10:49:12.819Z,16.42
2022-10-28T10:51:41.817Z,16.46
2022-10-28T10:54:14.433Z,16.58
2022-10-28T10:56:41.750Z,16.63
2022-10-28T10:59:19.785Z,16.65
2022-10-28T11:01:46.811Z,16.75
2022-10-28T11:04:18.428Z,16.87
2022-10-28T11:06:49.097Z,16.94
2022-10-28T11:09:35.673Z,16.93
2022-10-28T11:12:14.230Z,16.99
2022-10-28T11:14:53.178Z,16.96
2022-10-28T11:17:24.833Z,16.99
2022-10-28T11:19:53.804Z,17.05
2022-10-28T11:22:26.877Z,17.12
2022-10-28T11:25:16.515Z,17.18
2022-10-28T11:27:57.587Z,17.20
2022-10-28T11:30:45.809Z,17.24
2022-10-28T11:33:29.896Z,17.33
2022-10-28T11:36:03.615Z,17.41
2022-10-28T11:38:47.168Z,17.47
2022-10-28T11:41:13.842Z,17.50
2022-10-28T11:43:55.057Z,17.51
2022-10-28T11:46:31.676Z,17.53
2022-10-28T11:48:58.606Z,17.62
2022-10-28T11:51:31.934Z,17.63
2022-10-28T11:54:12.143Z,17.66
2022-10-28T11:56:44.915Z,17.64
2022-10-28T11:59:14.855Z,17.66
2022-10-28T12:01:48.905Z,17.69
2022-10-28T12:04:41.021Z,17.67
2022-10-28T12:07:20.064Z,17.69
2022-10-28T12:09:59.469Z,17.70
2022-10-28T12:12:55.848Z,17.80
2022-10-28T12:15:45.909Z,17.82
2022-10-28T12:18:21.829Z,17.88
2022-10-28T12:20:59.748Z,17.90
2022-10-28T12:23:27.374Z,17.92
2022-10-28T12:25:57.365Z,17.98
2022-10-28T12:28:27.425Z,18.00
2022-10-28T12:30:55.250Z,18.01
2022-10-28T12:33:33.505Z,18.01
2022-10-28T12:36:10.050Z,18.02
2022-10-28T12:38:45.769Z,18.05
2022-10-28T12:41:21.197Z,18.06
2022-10-28T12:44:08.652Z,18.08
2022-10-28T12:46:35.518Z,18.13
2022-10-28T12:49:05.587Z,18.09
2022-10-28T12:51:38.685Z,18.10
2022-10-28T12:54:16.923Z,18.15
2022-10-28T12:56:59.387Z,18.17
2022-10-28T12:59:29.549Z,18.19
2022-10-28T13:01:56.812Z,18.23
2022-10-28T13:04:23.633Z,18.27
2022-10-28T13:07:20.041Z,18.30
2022-10-28T13:09:58.873Z,18.35
2022-10-28T13:12:41.045Z,18.33
2022-10-28T13:15:26.454Z,18.30
2022-10-28T13:18:05.559Z,18.27
2022-10-28T13:20:52.537Z,18.23
2022-10-28T13:23:40.708Z,18.22
2022-10-28T13:26:22.251Z,18.26
2022-10-28T13:28:50.745Z,18.28
2022-10-28T13:31:18.589Z,18.23
2022-10-28T13:33:58.089Z,18.29
2022-10-28T13:36:26.317Z,18.35
2022-10-28T13:38:54.904Z,18.39
2022-10-28T13:41:30.965Z,18.42
2022-10-28T13:43:59.628Z,18.43
2022-10-28T13:46:45.451Z,18.42
2022-10-28T13:49:35.485Z,18.39
2022-10-28T13:52:08.425Z,18.39
2022-10-28T13:54:44.630Z,18.41
2022-10-28T13:57:30.757Z,18.40
2022-10-28T13:59:59.422Z,18.36
2022-10-28T14:02:36.675Z,18.34
2022-10-28T14:05:10.906Z,18.32
2022-10-28T14:07:50.739Z,18.31
2022-10-28T14:10:27.888Z,18.33
2022-10-28T14:12:58.060Z,18.33
2022-10-28T14:15:34.035Z,18.36
2022-10-28T14:18:10.293Z,18.35
2022-10-28T14:20:46.285Z,18.34
2022-10-28T14:23:22.314Z,18.33
2022-10-28T14:25:52.029Z,18.30
2022-10-28T14:28:27.802Z,18.27
2022-10-28T14:31:12.898Z,18.24
2022-10-28T14:33:42.889Z,18.22
2022-10-28T14:36:21.717Z,18.20
2022-10-28T14:39:03.536Z,18.17
2022-10-28T14:41:48.804Z,18.16
2022-10-28T14:44:15.689Z,18.14
2022-10-28T14:47:11.933Z,18.12
2022-10-28T14:49:40.100Z,18.08
2022-10-28T14:52:16.934Z,18.06
2022-10-28T14:54:49.173Z,18.02
2022-10-28T14:57:19.949Z,17.98
2022-10-28T14:59:46.790Z,17.94
2022-10-28T15:02:18.745Z,17.89
2022-10-28T15:04:47.063Z,17.87
2022-10-28T15:07:18.238Z,17.84
2022-10-28T15:09:47.634Z,17.80
2022-10-28T15:12:17.223Z,17.76
2022-10-28T15:14:52.286Z,17.73
2022-10-28T15:17:20.791Z,17.69
2022-10-28T15:19:49.551Z,17.66
2022-10-28T15:22:21.508Z,17.60
2022-10-28T15:25:00.745Z,17.56
2022-10-28T15:27:32.217Z,17.51
2022-10-28T15:29:59.632Z,17.46
2022-10-28T15:32:30.776Z,17.42
2022-10-28T15:34:58.243Z,17.37
2022-10-28T15:37:27.348Z,17.33
2022-10-28T15:40:12.379Z,17.27
2022-10-28T15:42:44.794Z,17.22
2022-10-28T15:45:24.240Z,17.15
2022-10-28T15:47:51.863Z,17.11
2022-10-28T15:50:19.019Z,17.06
2022-10-28T15:52:50.251Z,16.99
2022-10-28T15:55:21.775Z,16.96
2022-10-28T15:57:54.889Z,16.91
2022-10-28T16:00:23.169Z,16.90
2022-10-28T16:02:56.070Z,16.83
2022-10-28T16:05:32.390Z,16.78
2022-10-28T16:07:59.249Z,16.70
2022-10-28T16:10:28.275Z,16.64
2022-10-28T16:12:55.111Z,16.61
2022-10-28T16:15:22.048Z,16.54
2022-10-28T16:17:48.911Z,16.48
2022-10-28T16:20:19.456Z,16.48
2022-10-28T16:22:46.690Z,16.46
2022-10-28T16:25:15.319Z,16.41
2022-10-28T16:27:42.423Z,16.40
2022-10-28T16:30:09.882Z,16.36
2022-10-28T16:32:37.762Z,16.33
2022-10-28T16:35:10.101Z,16.35
2022-10-28T16:37:41.843Z,16.28
2022-10-28T16:40:30.686Z,16.22
2022-10-28T16:42:58.563Z,16.20
2022-10-28T16:45:25.254Z,16.16
2022-10-28T16:47:52.139Z,16.12
2022-10-28T16:50:19.111Z,16.09
2022-10-28T16:52:46.102Z,16.07
2022-10-28T16:55:16.506Z,16.03
2022-10-28T16:57:43.317Z,15.99
2022-10-28T17:00:12.721Z,15.97
2022-10-28T17:02:39.588Z,15.96
2022-10-28T17:05:07.435Z,15.91
2022-10-28T17:07:34.137Z,15.89
2022-10-28T17:10:01.033Z,15.88
2022-10-28T17:12:27.744Z,15.87
2022-10-28T17:14:54.651Z,15.82
2022-10-28T17:17:21.563Z,15.80
2022-10-28T17:19:48.397Z,15.76
2022-10-28T17:22:15.211Z,15.74
2022-10-28T17:24:43.489Z,15.70
2022-10-28T17:27:10.184Z,15.69
2022-10-28T17:29:37.088Z,15.74
2022-10-28T17:32:04.052Z,15.72
2022-10-28T17:34:31.005Z,15.67
2022-10-28T17:36:57.806Z,15.63
2022-10-28T17:39:26.372Z,15.58
2022-10-28T17:41:54.034Z,15.55
2022-10-28T17:44:21.148Z,15.51
2022-10-28T17:46:48.530Z,15.47
2022-10-28T17:49:15.585Z,15.43
2022-10-28T17:51:42.347Z,15.42
2022-10-28T17:54:09.418Z,15.40
2022-10-28T17:56:36.376Z,15.38
2022-10-28T17:59:04.416Z,15.34
2022-10-28T18:01:32.251Z,15.29
2022-10-28T18:03:59.116Z,15.25
2022-10-28T18:06:26.270Z,15.20
2022-10-28T18:08:52.974Z,15.18
2022-10-28T18:11:20.511Z,15.14
2022-10-28T18:13:53.600Z,15.08
2022-10-28T18:16:22.396Z,15.04
2022-10-28T18:18:49.208Z,15.02
2022-10-28T18:21:16.198Z,14.99
2022-10-28T18:23:42.987Z,15.00
2022-10-28T18:26:11.678Z,14.96
2022-10-28T18:28:38.861Z,14.92
2022-10-28T18:31:16.257Z,14.86
2022-10-28T18:33:43.665Z,14.80
2022-10-28T18:36:12.181Z,14.77
2022-10-28T18:38:39.006Z,14.74
2022-10-28T18:41:09.780Z,14.72
2022-10-28T18:43:36.513Z,14.70
2022-10-28T18:46:03.458Z,14.69
2022-10-28T18:48:31.893Z,14.66
2022-10-28T18:50:59.688Z,14.67
2022-10-28T18:53:26.934Z,14.61
2022-10-28T18:55:54.001Z,14.61
2022-10-28T18:58:20.932Z,14.58
2022-10-28T19:00:47.669Z,14.56
2022-10-28T19:03:19.274Z,14.58
2022-10-28T19:05:46.308Z,14.53
2022-10-28T19:08:13.385Z,14.47
2022-10-28T19:10:40.303Z,14.45
2022-10-28T19:13:07.095Z,14.43
2022-10-28T19:15:39.250Z,14.37
2022-10-28T19:18:06.047Z,14.34
2022-10-28T19:20:32.846Z,14.32
2022-10-28T19:23:01.099Z,14.33
2022-10-28T19:25:27.900Z,14.30
2022-10-28T19:27:54.580Z,14.21
2022-10-28T19:30:21.595Z,14.21
2022-10-28T19:32:48.329Z,14.15
2022-10-28T19:35:15.780Z,14.11
2022-10-28T19:37:42.618Z,14.07
2022-10-28T19:40:09.592Z,14.05
2022-10-28T19:42:38.808Z,14.00
2022-10-28T19:45:06.005Z,13.95
2022-10-28T19:47:32.896Z,13.94
2022-10-28T19:49:59.934Z,13.93
2022-10-28T19:52:26.641Z,13.88
2022-10-28T19:54:53.322Z,13.84
2022-10-28T19:57:20.177Z,13.81
2022-10-28T19:59:46.867Z,13.78
2022-10-28T20:02:13.724Z,13.77
2022-10-28T20:04:40.537Z,13.73
2022-10-28T20:07:07.238Z,13.74
2022-10-28T20:09:34.157Z,13.71
2022-10-28T20:12:01.891Z,13.65
2022-10-28T20:14:29.140Z,13.60
2022-10-28T20:16:56.140Z,13.56
2022-10-28T20:19:22.990Z,13.60
2022-10-28T20:21:50.812Z,13.53
2022-10-28T20:24:17.824Z,13.53
2022-10-28T20:26:44.654Z,13.54
2022-10-28T20:29:11.422Z,13.52
2022-10-28T20:31:41.268Z,13.48
2022-10-28T20:34:08.073Z,13.45
2022-10-28T20:36:34.799Z,13.39
2022-10-28T20:39:03.611Z,13.34
2022-10-28T20:41:31.456Z,13.27
2022-10-28T20:43:58.307Z,13.29
2022-10-28T20:46:25.842Z,13.30
2022-10-28T20:48:54.320Z,13.26
2022-10-28T20:51:21.545Z,13.23
2022-10-28T20:53:48.882Z,13.20
2022-10-28T20:56:17.374Z,13.18
2022-10-28T20:58:44.548Z,13.15
2022-10-28T21:01:19.296Z,13.13
2022-10-28T21:03:46.556Z,13.12
2022-10-28T21:06:15.367Z,13.13
2022-10-28T21:08:43.426Z,13.13
2022-10-28T21:11:11.334Z,13.08
2022-10-28T21:13:38.110Z,13.06
2022-10-28T21:16:05.926Z,13.03
2022-10-28T21:18:33.149Z,12.98
2022-10-28T21:21:00.269Z,12.98
2022-10-28T21:23:27.628Z,12.97
2022-10-28T21:25:55.486Z,12.93
2022-10-28T21:28:22.656Z,12.95
2022-10-28T21:30:49.444Z,12.89
2022-10-28T21:33:17.755Z,12.85
2022-10-28T21:35:44.493Z,12.82
2022-10-28T21:38:12.935Z,12.78
2022-10-28T21:40:39.717Z,12.76
2022-10-28T21:43:09.018Z,12.74
2022-10-28T21:45:35.703Z,12.73
2022-10-28T21:48:02.407Z,12.71
2022-10-28T21:50:29.231Z,12.68
2022-10-28T21:55:41.987Z,12.60
2022-10-28T21:58:13.029Z,12.60
2022-10-28T22:00:39.751Z,12.59
2022-10-28T22:03:06.620Z,12.56
2022-10-28T22:05:34.573Z,12.52
2022-10-28T22:08:04.430Z,12.51
2022-10-28T22:10:31.808Z,12.51
2022-10-28T22:12:58.661Z,12.49
2022-10-28T22:15:25.513Z,12.42
2022-10-28T22:17:52.522Z,12.39
2022-10-28T22:20:19.610Z,12.33
2022-10-28T22:22:46.544Z,12.30
2022-10-28T22:25:13.226Z,12.34
2022-10-28T22:27:40.177Z,12.29
2022-10-28T22:30:07.125Z,12.25
2022-10-28T22:32:34.004Z,12.22
2022-10-28T22:35:00.739Z,12.23
2022-10-28T22:37:27.462Z,12.27
2022-10-28T22:39:54.335Z,12.20
2022-10-28T22:42:20.994Z,12.15
2022-10-28T22:44:48.122Z,12.09
2022-10-28T22:47:14.792Z,12.06
2022-10-28T22:49:41.533Z,12.04
2022-10-28T22:52:08.320Z,12.01
2022-10-28T22:54:34.981Z,11.98
2022-10-28T22:57:01.851Z,11.97
2022-10-28T22:59:28.573Z,11.95
2022-10-28T23:01:55.472Z,11.93
2022-10-28T23:04:22.301Z,11.93
2022-10-28T23:06:49.203Z,11.93
2022-10-28T23:09:15.861Z,11.89
2022-10-28T23:11:42.679Z,11.89
2022-10-28T23:14:09.348Z,11.87
2022-10-28T23:16:36.426Z,11.84
2022-10-28T23:19:03.185Z,11.78
2022-10-28T23:21:30.121Z,11.79
2022-10-28T23:23:57.872Z,11.77
2022-10-28T23:26:25.520Z,11.74
2022-10-28T23:28:53.164Z,11.73
2022-10-28T23:31:20.633Z,11.67
2022-10-28T23:33:47.612Z,11.64
2022-10-28T23:36:15.207Z,11.61
2022-10-28T23:38:42.405Z,11.61
2022-10-28T23:41:10.636Z,11.57
2022-10-28T23:43:37.909Z,11.56
2022-10-28T23:46:05.067Z,11.54
2022-10-28T23:48:31.852Z,11.49
2022-10-28T23:50:58.822Z,11.46
2022-10-28T23:53:25.551Z,11.48
2022-10-28T23:55:52.777Z,11.46
2022-10-28T23:58:20.374Z,11.44
